Time;durP1;ratioP1;P1;durP2;ratioP2;P2;SDS_P1;SDS_P2;PMS_P1;PMS_P2;Temp;Humidity;BMP_temperature;BMP_pressure;BME280_temperature;BME280_humidity;BME280_pressure;Samples;Min_cycle;Max_cycle;Signal;HPM_P1;HPM_P2
2023/03/10 00:02:48;;;;;;;9.70;3.60;;;;;;;;;;10370156;28;20064;-60
2023/03/10 00:07:49;;;;;;;11.65;4.80;;;;;;;;;;10370415;28;20116;-57
2023/03/10 00:12:50;;;;;;;11.02;4.40;;;;;;;;;;10369689;28;20536;-58
2023/03/10 00:17:54;;;;;;;7.72;3.50;;;;;;;;;;10369120;28;20152;-59
2023/03/10 00:22:54;;;;;;;6.43;3.67;;;;;;;;;;10369323;28;20030;-58
2023/03/10 00:27:55;;;;;;;9.38;3.78;;;;;;;;;;10369191;28;20045;-58
2023/03/10 00:32:55;;;;;;;8.48;3.58;;;;;;;;;;10368289;28;20022;-59
2023/03/10 00:37:56;;;;;;;7.95;3.70;;;;;;;;;;10368518;28;20025;-59
2023/03/10 00:42:58;;;;;;;7.63;3.85;;;;;;;;;;10368592;28;20036;-59
2023/03/10 00:47:59;;;;;;;7.85;3.70;;;;;;;;;;10368807;28;20030;-59
2023/03/10 00:52:59;;;;;;;8.50;3.60;;;;;;;;;;10368482;28;20026;-59
2023/03/10 00:58:00;;;;;;;5.53;3.55;;;;;;;;;;10368378;28;20041;-59
2023/03/10 01:03:00;;;;;;;6.53;3.70;;;;;;;;;;10367798;28;20033;-59
2023/03/10 01:08:01;;;;;;;8.48;3.50;;;;;;;;;;10367054;28;20029;-58
2023/03/10 01:13:01;;;;;;;8.02;3.60;;;;;;;;;;10367829;28;20042;-58
2023/03/10 01:18:03;;;;;;;8.38;3.85;;;;;;;;;;10367459;28;20113;-59
2023/03/10 01:23:04;;;;;;;7.63;3.75;;;;;;;;;;10367265;28;20387;-58
2023/03/10 01:28:04;;;;;;;8.07;3.97;;;;;;;;;;10367865;28;20038;-57
2023/03/10 01:33:07;;;;;;;6.20;3.50;;;;;;;;;;10367026;28;20030;-58
2023/03/10 01:38:08;;;;;;;7.45;3.30;;;;;;;;;;10367141;28;20529;-58
2023/03/10 01:43:18;;;;;;;6.40;3.63;;;;;;;;;;10366731;28;20179;-58
2023/03/10 01:48:21;;;;;;;7.63;3.33;;;;;;;;;;10373440;28;20037;-58
2023/03/10 01:53:23;;;;;;;4.40;3.17;;;;;;;;;;10374466;28;20033;-58
2023/03/10 01:58:33;;;;;;;4.43;3.20;;;;;;;;;;10374419;28;20030;-59
2023/03/10 02:03:39;;;;;;;7.70;3.22;;;;;;;;;;10373885;28;20115;-58
2023/03/10 02:08:48;;;;;;;5.80;3.15;;;;;;;;;;10373389;28;20018;-58
2023/03/10 02:13:48;;;;;;;3.55;3.05;;;;;;;;;;10373429;28;20093;-59
2023/03/10 02:18:49;;;;;;;5.35;3.47;;;;;;;;;;10374009;28;20026;-58
2023/03/10 02:24:25;;;;;;;5.18;3.13;;;;;;;;;;10373231;28;20018;-58
2023/03/10 02:29:56;;;;;;;5.00;2.70;;;;;;;;;;10322884;28;20065;-59
2023/03/10 02:34:57;;;;;;;4.15;2.95;;;;;;;;;;10371889;28;20034;-58
2023/03/10 02:39:58;;;;;;;6.80;3.28;;;;;;;;;;10373490;28;20389;-58
2023/03/10 02:45:01;;;;;;;4.45;3.13;;;;;;;;;;10373127;28;20315;-58
2023/03/10 02:50:02;;;;;;;4.18;3.25;;;;;;;;;;10373587;28;20029;-58
2023/03/10 02:55:02;;;;;;;4.82;3.08;;;;;;;;;;10372694;28;20451;-58
2023/03/10 03:00:05;;;;;;;4.30;3.13;;;;;;;;;;10372234;28;20124;-57
2023/03/10 03:05:07;;;;;;;5.57;3.55;;;;;;;;;;10372692;28;20026;-58
2023/03/10 03:10:08;;;;;;;5.03;3.17;;;;;;;;;;10372277;28;20109;-58
2023/03/10 03:15:09;;;;;;;8.57;3.15;;;;;;;;;;10371809;28;20030;-58
2023/03/10 03:20:13;;;;;;;4.60;2.78;;;;;;;;;;10371921;28;20026;-58
2023/03/10 03:25:17;;;;;;;3.45;2.80;;;;;;;;;;10372043;28;20033;-58
2023/03/10 03:30:22;;;;;;;4.10;3.13;;;;;;;;;;10371458;28;20049;-58
2023/03/10 03:35:35;;;;;;;3.50;2.65;;;;;;;;;;10372156;28;20026;-58
2023/03/10 03:40:37;;;;;;;4.38;3.17;;;;;;;;;;10371570;28;20034;-58
2023/03/10 03:45:37;;;;;;;2.88;2.58;;;;;;;;;;10371032;28;20050;-58
2023/03/10 03:50:38;;;;;;;5.85;2.97;;;;;;;;;;10370730;28;20072;-58
2023/03/10 03:55:38;;;;;;;3.35;2.80;;;;;;;;;;10370415;28;20041;-58
2023/03/10 04:00:39;;;;;;;4.20;3.03;;;;;;;;;;10370947;28;20037;-58
2023/03/10 04:05:40;;;;;;;2.88;2.63;;;;;;;;;;10370143;28;20049;-58
2023/03/10 04:10:40;;;;;;;3.15;2.50;;;;;;;;;;10368131;28;20108;-57
2023/03/10 04:15:41;;;;;;;7.68;2.85;;;;;;;;;;10369621;28;20038;-58
2023/03/10 04:20:42;;;;;;;3.10;2.40;;;;;;;;;;10369625;28;20037;-58
2023/03/10 04:25:43;;;;;;;3.20;2.45;;;;;;;;;;10369292;28;20076;-58
2023/03/10 04:30:45;;;;;;;4.07;2.70;;;;;;;;;;10369663;28;20161;-58
2023/03/10 04:35:50;;;;;;;2.80;2.50;;;;;;;;;;10369532;28;20030;-58
2023/03/10 04:40:54;;;;;;;2.35;2.10;;;;;;;;;;10369787;28;20281;-58
2023/03/10 04:45:55;;;;;;;4.43;2.65;;;;;;;;;;10368591;28;20403;-58
2023/03/10 04:50:59;;;;;;;4.60;2.50;;;;;;;;;;10368754;28;20021;-58
2023/03/10 04:56:03;;;;;;;3.70;2.58;;;;;;;;;;10368852;28;20124;-58
2023/03/10 05:01:11;;;;;;;4.70;2.40;;;;;;;;;;10368218;28;20500;-58
2023/03/10 05:06:15;;;;;;;5.00;3.03;;;;;;;;;;10368628;28;20101;-58
2023/03/10 05:11:16;;;;;;;3.05;2.38;;;;;;;;;;10368021;28;20030;-58
2023/03/10 05:16:20;;;;;;;5.03;2.47;;;;;;;;;;10368270;28;20033;-58
2023/03/10 05:21:21;;;;;;;3.05;2.40;;;;;;;;;;10368182;28;20049;-58
2023/03/10 05:26:22;;;;;;;3.85;2.80;;;;;;;;;;10368142;28;20033;-58
2023/03/10 05:31:25;;;;;;;2.92;2.25;;;;;;;;;;10367111;28;20084;-58
2023/03/10 05:36:26;;;;;;;2.97;2.63;;;;;;;;;;10365977;28;20092;-58
2023/03/10 05:41:26;;;;;;;3.72;2.65;;;;;;;;;;10367401;28;20033;-58
2023/03/10 05:46:28;;;;;;;3.45;2.78;;;;;;;;;;10366822;28;20497;-59
2023/03/10 05:51:29;;;;;;;2.50;2.22;;;;;;;;;;10367725;28;20101;-60
2023/03/10 05:56:30;;;;;;;4.57;2.47;;;;;;;;;;10367362;28;20030;-60
2023/03/10 06:01:30;;;;;;;5.00;2.17;;;;;;;;;;10366872;28;20022;-59
2023/03/10 06:06:31;;;;;;;2.58;2.10;;;;;;;;;;10367491;28;20041;-59
2023/03/10 06:11:32;;;;;;;3.58;2.60;;;;;;;;;;10367942;28;20057;-59
2023/03/10 06:16:33;;;;;;;3.50;2.20;;;;;;;;;;10367231;28;20554;-59
2023/03/10 06:21:33;;;;;;;2.80;2.30;;;;;;;;;;10366691;28;20041;-59
2023/03/10 06:26:34;;;;;;;3.35;2.38;;;;;;;;;;10366670;28;20373;-58
2023/03/10 06:31:34;;;;;;;2.53;2.30;;;;;;;;;;10367938;28;20434;-58
2023/03/10 06:36:37;;;;;;;3.35;2.80;;;;;;;;;;10373449;28;20141;-59
2023/03/10 06:41:38;;;;;;;3.67;2.95;;;;;;;;;;10373418;28;20508;-60
2023/03/10 06:46:39;;;;;;;5.55;2.90;;;;;;;;;;10372987;28;20049;-59
2023/03/10 06:51:39;;;;;;;7.32;3.03;;;;;;;;;;10373553;28;20022;-60
2023/03/10 06:56:40;;;;;;;10.35;3.30;;;;;;;;;;10372809;28;20037;-60
2023/03/10 07:01:41;;;;;;;11.77;3.10;;;;;;;;;;10372777;28;20032;-60
2023/03/10 07:06:42;;;;;;;10.63;4.45;;;;;;;;;;10372999;28;20037;-59
2023/03/10 07:11:42;;;;;;;10.43;2.97;;;;;;;;;;10372241;28;20026;-59
2023/03/10 07:16:45;;;;;;;12.20;2.97;;;;;;;;;;10370806;28;20045;-59
2023/03/10 07:21:45;;;;;;;7.65;3.17;;;;;;;;;;10372470;28;20033;-59
2023/03/10 07:26:46;;;;;;;6.88;3.13;;;;;;;;;;10372337;28;20034;-59
2023/03/10 07:31:46;;;;;;;7.82;4.03;;;;;;;;;;10371597;28;20026;-59
2023/03/10 07:36:47;;;;;;;8.80;3.60;;;;;;;;;;10371458;28;20030;-59
2023/03/10 07:41:47;;;;;;;7.55;3.20;;;;;;;;;;10371665;28;20034;-59
2023/03/10 07:46:48;;;;;;;4.25;3.10;;;;;;;;;;10369834;28;20051;-59
2023/03/10 07:51:49;;;;;;;8.38;3.65;;;;;;;;;;10370321;28;20498;-59
2023/03/10 07:56:49;;;;;;;7.13;3.97;;;;;;;;;;10370325;28;20370;-59
2023/03/10 08:01:50;;;;;;;7.68;3.38;;;;;;;;;;10371367;28;20403;-59
2023/03/10 08:06:50;;;;;;;7.85;3.17;;;;;;;;;;10370230;28;20497;-59
2023/03/10 08:11:51;;;;;;;8.98;3.75;;;;;;;;;;10370506;28;20038;-59
2023/03/10 08:16:52;;;;;;;12.52;4.05;;;;;;;;;;10369741;28;20025;-59
2023/03/10 08:21:56;;;;;;;7.05;3.72;;;;;;;;;;10369678;28;20040;-60
2023/03/10 08:26:57;;;;;;;9.10;3.65;;;;;;;;;;10370139;28;20077;-59
2023/03/10 08:31:57;;;;;;;5.80;3.40;;;;;;;;;;10369238;28;20026;-59
2023/03/10 08:36:59;;;;;;;9.15;3.42;;;;;;;;;;10369619;28;20370;-59
2023/03/10 08:42:00;;;;;;;6.45;4.00;;;;;;;;;;10368871;28;20084;-59
2023/03/10 08:47:00;;;;;;;6.80;3.30;;;;;;;;;;10368630;28;20044;-59
2023/03/10 08:52:01;;;;;;;6.88;3.45;;;;;;;;;;10369596;28;20220;-59
2023/03/10 08:57:02;;;;;;;5.97;3.65;;;;;;;;;;10368591;28;20081;-59
2023/03/10 09:02:03;;;;;;;5.63;3.30;;;;;;;;;;10368818;28;20398;-59
2023/03/10 09:07:03;;;;;;;4.93;3.20;;;;;;;;;;10368216;28;20048;-59
2023/03/10 09:12:05;;;;;;;4.63;3.60;;;;;;;;;;10368099;28;20041;-59
2023/03/10 09:17:06;;;;;;;5.70;3.47;;;;;;;;;;10367770;28;20029;-59
2023/03/10 09:22:07;;;;;;;5.72;3.40;;;;;;;;;;10366587;28;20026;-59
2023/03/10 09:27:07;;;;;;;7.93;3.50;;;;;;;;;;10368424;28;20057;-58
2023/03/10 09:32:08;;;;;;;5.60;3.35;;;;;;;;;;10367629;28;20033;-58
2023/03/10 09:37:08;;;;;;;6.57;3.38;;;;;;;;;;10367448;28;20041;-59
2023/03/10 09:42:34;;;;;;;5.03;3.28;;;;;;;;;;10368405;28;20026;-58
2023/03/10 09:48:40;;;;;;;11.32;3.22;;;;;;;;;;10367140;28;20536;-58
2023/03/10 09:54:01;;;;;;;3.70;2.95;;;;;;;;;;10364046;28;20041;-59
2023/03/10 09:59:15;;;;;;;7.40;3.10;;;;;;;;;;10346422;28;20041;-58
2023/03/10 10:04:34;;;;;;;9.13;3.38;;;;;;;;;;10367163;28;20093;-58
2023/03/10 10:10:27;;;;;;;8.60;2.72;;;;;;;;;;10374013;28;20026;-59
2023/03/10 10:15:30;;;;;;;6.50;3.20;;;;;;;;;;10366383;28;20042;-59
2023/03/10 10:20:41;;;;;;;11.27;3.92;;;;;;;;;;10375441;28;20108;-59
2023/03/10 10:25:41;;;;;;;7.13;3.17;;;;;;;;;;10373363;28;20039;-59
2023/03/10 10:30:42;;;;;;;6.88;3.60;;;;;;;;;;10374640;28;20374;-59
2023/03/10 10:36:01;;;;;;;6.05;3.03;;;;;;;;;;10374389;28;20025;-59
2023/03/10 10:41:20;;;;;;;8.25;3.10;;;;;;;;;;10374340;28;20076;-58
2023/03/10 10:46:28;;;;;;;5.43;3.20;;;;;;;;;;10372298;28;20050;-59
2023/03/10 10:51:34;;;;;;;4.47;2.90;;;;;;;;;;10373378;28;20046;-59
2023/03/10 10:56:35;;;;;;;5.72;3.03;;;;;;;;;;10373234;28;20128;-59
2023/03/10 11:02:01;;;;;;;4.60;2.42;;;;;;;;;;10372099;28;20029;-59
2023/03/10 11:07:23;;;;;;;5.18;2.70;;;;;;;;;;10373277;28;20026;-58
2023/03/10 11:12:34;;;;;;;7.25;3.13;;;;;;;;;;10371518;28;20473;-59
2023/03/10 11:17:48;;;;;;;5.28;2.92;;;;;;;;;;10372267;28;20120;-59
2023/03/10 11:23:08;;;;;;;8.80;3.30;;;;;;;;;;10372719;28;20035;-59
2023/03/10 11:28:16;;;;;;;6.80;2.90;;;;;;;;;;10372145;28;20045;-59
2023/03/10 11:33:42;;;;;;;5.68;2.88;;;;;;;;;;10372208;28;20458;-59
2023/03/10 11:38:48;;;;;;;7.38;3.25;;;;;;;;;;10371495;28;20439;-59
2023/03/10 11:44:14;;;;;;;4.38;2.83;;;;;;;;;;10370334;28;20074;-59
2023/03/10 11:49:16;;;;;;;4.97;3.25;;;;;;;;;;10370166;28;20033;-59
2023/03/10 11:54:47;;;;;;;4.05;2.60;;;;;;;;;;10370804;28;20077;-59
2023/03/10 11:59:56;;;;;;;3.97;2.47;;;;;;;;;;10370187;28;20036;-59
2023/03/10 12:05:20;;;;;;;5.50;3.05;;;;;;;;;;10369347;28;20034;-59
2023/03/10 12:10:21;;;;;;;6.10;3.00;;;;;;;;;;10369789;28;20461;-59
2023/03/10 12:15:35;;;;;;;5.43;3.00;;;;;;;;;;10369423;28;20025;-59
2023/03/10 12:20:36;;;;;;;4.32;2.70;;;;;;;;;;10369586;28;20112;-59
2023/03/10 12:25:37;;;;;;;4.20;2.67;;;;;;;;;;10370215;28;20473;-59
2023/03/10 12:31:00;;;;;;;5.75;2.65;;;;;;;;;;10368979;28;20392;-59
2023/03/10 12:36:38;;;;;;;3.65;2.70;;;;;;;;;;10369324;28;20397;-59
2023/03/10 12:41:46;;;;;;;5.80;2.88;;;;;;;;;;10368738;28;20057;-59
2023/03/10 12:47:17;;;;;;;6.72;3.55;;;;;;;;;;10368559;28;20402;-59
2023/03/10 12:52:39;;;;;;;6.60;3.17;;;;;;;;;;10369244;28;20037;-59
2023/03/10 12:57:51;;;;;;;5.15;3.22;;;;;;;;;;10369583;28;20033;-59
2023/03/10 13:03:49;;;;;;;4.90;2.70;;;;;;;;;;10367236;28;20032;-59
2023/03/10 13:09:13;;;;;;;4.13;2.58;;;;;;;;;;10357334;28;20034;-59
2023/03/10 13:14:18;;;;;;;3.47;2.80;;;;;;;;;;10368732;28;20038;-59
2023/03/10 13:19:21;;;;;;;4.95;2.67;;;;;;;;;;10368030;28;20180;-59
2023/03/10 13:24:29;;;;;;;8.70;2.80;;;;;;;;;;10367255;28;20498;-58
2023/03/10 13:29:30;;;;;;;7.75;2.80;;;;;;;;;;10367666;28;20041;-59
2023/03/10 13:34:32;;;;;;;6.57;3.08;;;;;;;;;;10367413;28;20041;-59
2023/03/10 13:39:33;;;;;;;6.00;2.90;;;;;;;;;;10367017;28;20034;-59
2023/03/10 13:44:38;;;;;;;3.92;2.95;;;;;;;;;;10373877;28;20042;-59
2023/03/10 13:49:41;;;;;;;5.65;3.03;;;;;;;;;;10374306;28;20037;-59
2023/03/10 13:54:42;;;;;;;6.75;3.38;;;;;;;;;;10373888;28;20045;-59
2023/03/10 13:59:44;;;;;;;6.25;3.17;;;;;;;;;;10374557;28;20084;-59
2023/03/10 14:04:53;;;;;;;8.77;3.47;;;;;;;;;;10374407;28;20053;-59
2023/03/10 14:10:02;;;;;;;9.38;3.03;;;;;;;;;;10376096;28;20055;-59
2023/03/10 14:15:18;;;;;;;10.57;3.45;;;;;;;;;;10374116;28;20048;-59
2023/03/10 14:20:43;;;;;;;8.82;3.53;;;;;;;;;;10375051;28;20029;-59
2023/03/10 14:25:46;;;;;;;6.32;3.03;;;;;;;;;;10374524;28;20026;-59
2023/03/10 14:30:46;;;;;;;12.07;2.92;;;;;;;;;;10375403;28;20072;-59
2023/03/10 14:35:48;;;;;;;7.85;3.60;;;;;;;;;;10373703;28;20056;-59
2023/03/10 14:40:53;;;;;;;3.65;2.75;;;;;;;;;;10374614;28;20030;-59
2023/03/10 14:45:56;;;;;;;9.70;2.67;;;;;;;;;;10372048;28;20073;-60
2023/03/10 14:50:57;;;;;;;4.88;2.53;;;;;;;;;;10372403;28;20107;-59
2023/03/10 14:56:00;;;;;;;15.60;3.50;;;;;;;;;;10372915;28;20088;-59
2023/03/10 15:01:02;;;;;;;10.93;3.17;;;;;;;;;;10374182;28;20034;-59
2023/03/10 15:06:02;;;;;;;10.50;3.50;;;;;;;;;;10372423;28;20096;-59
2023/03/10 15:11:03;;;;;;;12.50;4.18;;;;;;;;;;10372633;28;20072;-59
2023/03/10 15:16:05;;;;;;;13.45;4.18;;;;;;;;;;10372443;28;20036;-59
2023/03/10 15:21:07;;;;;;;13.05;4.45;;;;;;;;;;10372749;28;20030;-59
2023/03/10 15:26:11;;;;;;;19.40;4.25;;;;;;;;;;10372000;28;20033;-58
2023/03/10 15:31:11;;;;;;;17.40;4.40;;;;;;;;;;10372473;28;20022;-58
2023/03/10 15:36:12;;;;;;;11.45;4.07;;;;;;;;;;10371566;28;20037;-57
2023/03/10 15:41:13;;;;;;;10.57;3.88;;;;;;;;;;10372022;28;20029;-58
2023/03/10 15:46:13;;;;;;;19.17;4.82;;;;;;;;;;10371204;28;20050;-58
2023/03/10 15:51:16;;;;;;;21.45;5.10;;;;;;;;;;10371105;28;20485;-59
2023/03/10 15:56:17;;;;;;;23.77;5.35;;;;;;;;;;10371285;28;20045;-58
2023/03/10 16:01:21;;;;;;;25.38;4.63;;;;;;;;;;10371293;28;20026;-58
2023/03/10 16:06:25;;;;;;;27.05;5.88;;;;;;;;;;10369521;28;20669;-58
2023/03/10 16:11:27;;;;;;;20.58;5.45;;;;;;;;;;10370170;28;20481;-57
2023/03/10 16:16:27;;;;;;;17.27;5.40;;;;;;;;;;10369927;28;20504;-58
2023/03/10 16:21:28;;;;;;;14.32;5.22;;;;;;;;;;10370235;28;20084;-58
2023/03/10 16:26:28;;;;;;;25.10;6.15;;;;;;;;;;10369721;28;20041;-58
2023/03/10 16:31:29;;;;;;;15.10;5.60;;;;;;;;;;10369447;28;20032;-58
2023/03/10 16:36:32;;;;;;;20.50;5.72;;;;;;;;;;10369831;28;20123;-58
2023/03/10 16:41:32;;;;;;;21.90;5.38;;;;;;;;;;10369792;28;20076;-58
2023/03/10 16:46:33;;;;;;;20.77;6.30;;;;;;;;;;10367662;28;20445;-58
2023/03/10 16:51:37;;;;;;;22.20;5.78;;;;;;;;;;10369385;28;20029;-58
2023/03/10 16:56:45;;;;;;;21.38;5.25;;;;;;;;;;10369246;28;20562;-58
2023/03/10 17:01:46;;;;;;;21.67;5.40;;;;;;;;;;10369148;28;20028;-58
2023/03/10 17:06:47;;;;;;;14.73;5.45;;;;;;;;;;10368827;28;20049;-58
2023/03/10 17:11:51;;;;;;;13.38;4.93;;;;;;;;;;10368807;28;20112;-58
2023/03/10 17:16:53;;;;;;;18.67;4.90;;;;;;;;;;10367921;28;20030;-58
2023/03/10 17:21:54;;;;;;;13.38;4.68;;;;;;;;;;10368504;28;20022;-57
2023/03/10 17:26:54;;;;;;;15.05;5.00;;;;;;;;;;10368128;28;20432;-58
2023/03/10 17:31:55;;;;;;;11.25;5.00;;;;;;;;;;10367640;28;20046;-58
2023/03/10 17:36:55;;;;;;;25.25;5.55;;;;;;;;;;10367210;28;20058;-58
2023/03/10 17:41:56;;;;;;;23.13;6.38;;;;;;;;;;10367258;28;20026;-59
2023/03/10 17:46:57;;;;;;;17.90;5.70;;;;;;;;;;10367301;28;20048;-59
2023/03/10 17:51:57;;;;;;;18.45;5.95;;;;;;;;;;10367182;28;20041;-58
2023/03/10 17:56:58;;;;;;;14.60;5.72;;;;;;;;;;10367543;28;20034;-58
2023/03/10 18:02:01;;;;;;;14.70;5.75;;;;;;;;;;10367041;28;20038;-58
2023/03/10 18:07:02;;;;;;;13.90;5.55;;;;;;;;;;10367089;28;20540;-58
2023/03/10 18:12:03;;;;;;;11.18;5.20;;;;;;;;;;10367086;28;20034;-59
2023/03/10 18:17:03;;;;;;;18.88;5.93;;;;;;;;;;10367122;28;20033;-59
2023/03/10 18:22:05;;;;;;;11.05;5.57;;;;;;;;;;10366553;28;20481;-59
2023/03/10 18:27:06;;;;;;;12.68;5.90;;;;;;;;;;10367515;28;20271;-59
2023/03/10 18:32:06;;;;;;;11.10;6.05;;;;;;;;;;10373984;28;20026;-58
2023/03/10 18:37:07;;;;;;;14.93;6.18;;;;;;;;;;10374392;28;20029;-59
2023/03/10 18:42:07;;;;;;;18.83;6.72;;;;;;;;;;10373499;28;20453;-59
2023/03/10 18:47:08;;;;;;;19.00;6.55;;;;;;;;;;10373380;28;20061;-58
2023/03/10 18:52:11;;;;;;;16.42;6.45;;;;;;;;;;10372742;28;20034;-59
2023/03/10 18:57:13;;;;;;;16.77;6.57;;;;;;;;;;10372904;28;20371;-58
2023/03/10 19:02:14;;;;;;;14.55;6.43;;;;;;;;;;10373333;28;20030;-58
2023/03/10 19:07:19;;;;;;;14.52;5.50;;;;;;;;;;10372523;28;20498;-59
2023/03/10 19:12:20;;;;;;;14.98;5.57;;;;;;;;;;10372633;28;20068;-58
2023/03/10 19:17:21;;;;;;;12.10;5.60;;;;;;;;;;10371974;28;20030;-58
2023/03/10 19:22:22;;;;;;;13.95;5.80;;;;;;;;;;10371958;28;20026;-58
2023/03/10 19:27:22;;;;;;;13.27;5.57;;;;;;;;;;10372392;28;20037;-58
2023/03/10 19:32:24;;;;;;;13.73;5.70;;;;;;;;;;10372002;28;20026;-59
2023/03/10 19:37:24;;;;;;;11.32;5.47;;;;;;;;;;10371562;28;20092;-58
2023/03/10 19:42:25;;;;;;;13.82;5.05;;;;;;;;;;10372033;28;20500;-58
2023/03/10 19:47:28;;;;;;;10.60;5.47;;;;;;;;;;10371438;28;20498;-58
2023/03/10 19:52:29;;;;;;;8.32;5.10;;;;;;;;;;10371237;28;20397;-59
2023/03/10 19:57:29;;;;;;;16.25;5.20;;;;;;;;;;10369931;28;20036;-59
2023/03/10 20:02:30;;;;;;;8.70;4.82;;;;;;;;;;10370867;28;20026;-58
2023/03/10 20:07:30;;;;;;;12.52;5.25;;;;;;;;;;10370566;28;20034;-59
2023/03/10 20:12:31;;;;;;;11.18;5.22;;;;;;;;;;10370584;28;20021;-59
2023/03/10 20:17:31;;;;;;;12.10;4.95;;;;;;;;;;10369533;28;20473;-58
2023/03/10 20:22:32;;;;;;;8.98;4.90;;;;;;;;;;10369915;28;20482;-60
2023/03/10 20:27:33;;;;;;;8.88;4.35;;;;;;;;;;10370348;28;20052;-58
2023/03/10 20:32:34;;;;;;;15.48;5.38;;;;;;;;;;10369577;28;20457;-59
2023/03/10 20:37:37;;;;;;;10.02;5.00;;;;;;;;;;10369860;28;20030;-59
2023/03/10 20:42:38;;;;;;;10.63;5.65;;;;;;;;;;10369275;28;20500;-59
2023/03/10 20:47:40;;;;;;;14.38;5.40;;;;;;;;;;10368764;28;20077;-58
2023/03/10 20:52:42;;;;;;;6.95;4.85;;;;;;;;;;10368225;28;20151;-58
2023/03/10 20:57:42;;;;;;;8.52;5.03;;;;;;;;;;10368515;28;20444;-58
2023/03/10 21:02:45;;;;;;;11.18;5.22;;;;;;;;;;10368224;28;20033;-58
2023/03/10 21:07:46;;;;;;;6.72;4.57;;;;;;;;;;10368509;28;20083;-58
2023/03/10 21:12:46;;;;;;;10.48;4.90;;;;;;;;;;10368568;28;20111;-58
2023/03/10 21:17:47;;;;;;;7.28;4.45;;;;;;;;;;10368016;28;20034;-58
2023/03/10 21:22:48;;;;;;;8.07;4.30;;;;;;;;;;10368301;28;20351;-58
2023/03/10 21:27:55;;;;;;;12.45;4.75;;;;;;;;;;10367604;28;20026;-59
2023/03/10 21:32:56;;;;;;;13.68;4.50;;;;;;;;;;10368094;28;20113;-59
2023/03/10 21:37:58;;;;;;;22.80;4.40;;;;;;;;;;10368028;28;20100;-59
2023/03/10 21:42:58;;;;;;;5.85;3.65;;;;;;;;;;10367210;28;20034;-60
2023/03/10 21:47:59;;;;;;;7.90;3.53;;;;;;;;;;10367841;28;20042;-59
2023/03/10 21:53:00;;;;;;;8.63;3.90;;;;;;;;;;10367015;28;20553;-59
2023/03/10 21:58:01;;;;;;;9.15;3.72;;;;;;;;;;10367264;28;20034;-59
2023/03/10 22:03:03;;;;;;;12.00;4.25;;;;;;;;;;10369256;28;20030;-59
2023/03/10 22:08:04;;;;;;;8.00;3.40;;;;;;;;;;10374940;28;20018;-59
2023/03/10 22:13:05;;;;;;;12.88;3.70;;;;;;;;;;10374555;28;20032;-59
2023/03/10 22:18:05;;;;;;;14.73;4.22;;;;;;;;;;10373848;28;20057;-59
2023/03/10 22:23:06;;;;;;;10.93;4.35;;;;;;;;;;10373553;28;20026;-59
2023/03/10 22:28:07;;;;;;;6.10;3.75;;;;;;;;;;10374316;28;20033;-59
2023/03/10 22:33:08;;;;;;;5.00;3.22;;;;;;;;;;10374267;28;20062;-59
2023/03/10 22:38:09;;;;;;;4.85;3.05;;;;;;;;;;10373703;28;20029;-59
2023/03/10 22:43:09;;;;;;;5.30;3.20;;;;;;;;;;10373655;28;20259;-58
2023/03/10 22:48:10;;;;;;;6.88;3.30;;;;;;;;;;10373608;28;20037;-58
2023/03/10 22:53:17;;;;;;;5.75;3.30;;;;;;;;;;10373338;28;20096;-59
2023/03/10 22:58:17;;;;;;;5.50;3.30;;;;;;;;;;10373451;28;20103;-58
2023/03/10 23:03:18;;;;;;;5.00;3.03;;;;;;;;;;10372694;28;20071;-58
2023/03/10 23:08:19;;;;;;;6.03;3.28;;;;;;;;;;10372890;28;20026;-59
2023/03/10 23:13:20;;;;;;;5.97;3.17;;;;;;;;;;10372432;28;20034;-58
2023/03/10 23:18:20;;;;;;;5.85;3.47;;;;;;;;;;10372021;28;20499;-59
2023/03/10 23:23:21;;;;;;;6.30;2.88;;;;;;;;;;10372042;28;20084;-59
2023/03/10 23:28:21;;;;;;;6.70;2.75;;;;;;;;;;10372573;28;20387;-58
2023/03/10 23:33:23;;;;;;;6.97;3.22;;;;;;;;;;10371952;28;20041;-58
2023/03/10 23:38:25;;;;;;;7.28;3.30;;;;;;;;;;10372336;28;20081;-59
2023/03/10 23:43:26;;;;;;;7.78;3.17;;;;;;;;;;10371489;28;20077;-60
2023/03/10 23:48:27;;;;;;;3.92;2.85;;;;;;;;;;10371848;28;20174;-59
2023/03/10 23:53:28;;;;;;;4.90;2.85;;;;;;;;;;10371096;28;20212;-59
2023/03/10 23:58:28;;;;;;;5.35;2.80;;;;;;;;;;10370735;28;20108;-60
